Mandoudi — SV3198 — position and weather

sailwx.info

Track history (hours):
 
Tides and Currents Weather Stations Pressure Air Temp Water Temp Dewpoint Dewpoint Depression Visibility Wind Speed Wind Dir Waves Ship Positions

Mandoudi

Last reported at 2015-May-04 08:34 UTC. Time now 2015-May-04 09:02 UTC.
Position N 37°57' E 023°38'.

Length 60 m; draft 4.6 m.

Type: Ship (hazmat cat A). MMSI: 237470200.

Date/timePositionNaut miles runAvg speedWind from/ knotsBaromVisibWave heightAir tempDewpointWater temp
2015-May-04 08:34N 37°57' E 023°38'0 0.0
2015-May-04 07:33N 37°57' E 023°38'0 0.0
2015-May-04 06:33N 37°57' E 023°38'0 0.0
2015-May-04 05:33N 37°57' E 023°38'0 0.0
2015-May-04 04:33N 37°57' E 023°38'2 1.5
2015-May-04 03:33N 37°58' E 023°37'0 0.0
2015-May-04 02:33N 37°58' E 023°37'0 0.0
2015-May-04 01:33N 37°58' E 023°37'0 0.0
2015-May-04 00:33N 37°58' E 023°37'0 0.0
2015-May-03 23:33N 37°58' E 023°37'0 0.0
2015-May-03 22:33N 37°58' E 023°37'0 0.0
2015-May-03 21:33N 37°58' E 023°37'0 0.0
2015-May-03 20:33N 37°58' E 023°37'0 0.0
2015-May-03 19:33N 37°58' E 023°37'0 0.0
2015-May-03 18:33N 37°58' E 023°37'0 0.0
2015-May-03 17:33N 37°58' E 023°37'0 0.0
2015-May-03 16:33N 37°58' E 023°37'0 0.0
2015-May-03 15:33N 37°58' E 023°37'0 0.0
2015-May-03 14:33N 37°58' E 023°37'0 0.0
2015-May-03 13:34N 37°58' E 023°37'0 0.0
2015-May-03 12:33N 37°58' E 023°37'0 0.0
2015-May-03 11:33N 37°58' E 023°37'0 0.0
2015-May-03 10:33N 37°58' E 023°37'0 0.0
2015-May-03 09:33N 37°58' E 023°37'0 0.0
2015-May-03 08:33N 37°58' E 023°37'0 0.0
2015-May-03 07:33N 37°58' E 023°37'0 0.0
2015-May-03 06:33N 37°58' E 023°37'0 0.0
2015-May-03 05:33N 37°58' E 023°37'0 0.0
2015-May-03 04:33N 37°58' E 023°37'0 0.0
2015-May-03 03:33N 37°58' E 023°37'0 0.0
2015-May-03 02:33N 37°58' E 023°37'0 0.0
2015-May-03 01:33N 37°58' E 023°37'0 0.0
2015-May-03 00:32N 37°58' E 023°37'0 0.0
2015-May-02 23:33N 37°58' E 023°37'0 0.0
2015-May-02 22:33N 37°58' E 023°37'0 0.0
2015-May-02 21:33N 37°58' E 023°37'0 0.0
2015-May-02 20:33N 37°58' E 023°37'0 0.0
2015-May-02 19:33N 37°58' E 023°37'0 0.0
2015-May-02 18:33N 37°58' E 023°37'0 0.0
2015-May-02 17:33N 37°58' E 023°37'0 0.0
2015-May-02 16:33N 37°58' E 023°37'1 1.3
2015-May-02 15:33N 37°57' E 023°35'5 5.1
2015-May-02 14:33N 38°02' E 023°33'0 0.0
2015-May-02 13:32N 38°02' E 023°33'1 0.6
2015-May-02 12:33N 38°02' E 023°32'0 0.1
2015-May-02 11:33N 38°01' E 023°32'0 0.0
2015-May-02 10:32N 38°01' E 023°32'1 1.2
2015-May-02 09:30N 38°02' E 023°31'0 0.0
2015-May-02 08:33N 38°02' E 023°31'0 0.0
2015-May-02 07:32N 38°02' E 023°31'0 0.0
2015-May-02 06:16N 38°02' E 023°31'0 0.0
2015-May-02 05:33N 38°02' E 023°31'0 0.3
2015-May-02 04:32N 38°02' E 023°31'6 6.3
2015-May-02 03:33N 37°57' E 023°36'1 0.6
2015-May-02 02:33N 37°58' E 023°37'0 0.0
2015-May-02 01:33N 37°58' E 023°37'0 0.0
2015-May-02 00:33N 37°58' E 023°37'0 0.0
2015-May-01 23:33N 37°58' E 023°37'0 0.0
2015-May-01 22:33N 37°58' E 023°37'0 0.0
2015-May-01 21:33N 37°58' E 023°37'0 0.0
2015-May-01 20:33N 37°58' E 023°37'0 0.0
2015-May-01 19:33N 37°58' E 023°37'0 0.0
2015-May-01 18:33N 37°58' E 023°37'0 0.0
2015-May-01 17:33N 37°58' E 023°37'0 0.0
2015-May-01 16:33N 37°58' E 023°37'0 0.0
2015-May-01 15:33N 37°58' E 023°37'0 0.0
2015-May-01 14:33N 37°58' E 023°37'0 0.0
2015-May-01 13:33N 37°58' E 023°37'0 0.0
2015-May-01 12:33N 37°58' E 023°37'0 0.0
2015-May-01 11:33N 37°58' E 023°37'0 0.0
2015-May-01 10:33N 37°58' E 023°37'0 0.0
2015-May-01 09:33N 37°58' E 023°37'0 0.0
2015-May-01 08:33N 37°58' E 023°37'0 0.0
2015-May-01 07:33N 37°58' E 023°37'0 0.0
2015-May-01 06:33N 37°58' E 023°37'0 0.0
2015-May-01 05:33N 37°58' E 023°37'0 0.0
2015-May-01 04:33N 37°58' E 023°37'0 0.0
2015-May-01 03:33N 37°58' E 023°37'0 0.0
2015-May-01 02:33N 37°58' E 023°37'0 0.0
2015-May-01 01:33N 37°58' E 023°37'0 0.0
2015-May-01 00:33N 37°58' E 023°37'0 0.0
2015-Apr-30 23:33N 37°58' E 023°37'0 0.0
2015-Apr-30 22:33N 37°58' E 023°37'0 0.0
2015-Apr-30 21:33N 37°58' E 023°37'2 1.5
2015-Apr-30 20:33N 37°57' E 023°38'0 0.0
2015-Apr-30 19:33N 37°57' E 023°38'1 0.8
2015-Apr-30 18:33N 37°56' E 023°37'1 1.3
2015-Apr-30 17:33N 37°58' E 023°37'0 0.0
2015-Apr-30 16:33N 37°58' E 023°37'1 1.4
2015-Apr-30 15:33N 37°57' E 023°38'0 0.0
2015-Apr-30 14:33N 37°57' E 023°38'0 0.0
2015-Apr-30 13:33N 37°57' E 023°38'0 0.0
2015-Apr-30 12:33N 37°57' E 023°38'0 0.0
2015-Apr-30 11:33N 37°57' E 023°38'0 0.0
2015-Apr-30 10:33N 37°57' E 023°38'5 5.2
2015-Apr-30 09:33N 37°60' E 023°33'2 1.8
2015-Apr-30 08:33N 38°01' E 023°32'0 0.3
2015-Apr-30 07:30N 38°02' E 023°31'0 0.0
2015-Apr-30 06:33N 38°02' E 023°31'4 0.2
2015-Apr-29 12:06N 37°58' E 023°33'4 8.0
2015-Apr-29 11:33N 37°57' E 023°38'0 0.0
2015-Apr-29 10:33N 37°57' E 023°38'0 0.0
2015-Apr-29 09:33N 37°57' E 023°38'0 0.0
2015-Apr-29 08:33N 37°57' E 023°38'0 0.1
2015-Apr-29 07:33N 37°57' E 023°38'0 0.1
2015-Apr-29 06:33N 37°56' E 023°38'0 0.0
2015-Apr-29 05:33N 37°56' E 023°38'0 0.0
2015-Apr-29 04:33N 37°56' E 023°38'1 1.4
2015-Apr-29 03:33N 37°58' E 023°37'0 0.0
2015-Apr-29 02:33N 37°58' E 023°37'0 0.0
2015-Apr-29 01:34N 37°58' E 023°37'0 0.0
2015-Apr-29 00:33N 37°58' E 023°37'0 0.0
2015-Apr-28 23:33N 37°58' E 023°37'0 0.0
2015-Apr-28 22:33N 37°58' E 023°37'0 0.0
2015-Apr-28 21:33N 37°58' E 023°37'0 0.0
2015-Apr-28 20:33N 37°58' E 023°37'0 0.0
2015-Apr-28 19:33N 37°58' E 023°37'0 0.0
2015-Apr-28 18:33N 37°58' E 023°37'4 3.8
2015-Apr-28 17:33N 37°60' E 023°33'3 1.9
2015-Apr-28 16:04N 38°02' E 023°31'0 0.0
2015-Apr-28 15:25N 38°02' E 023°31'0 0.0
2015-Apr-28 14:33N 38°02' E 023°31'2 1.6
2015-Apr-28 13:33N 38°01' E 023°32'6 6.5
2015-Apr-28 12:33N 37°57' E 023°38'0 0.0
2015-Apr-28 11:33N 37°57' E 023°38'0 0.0
2015-Apr-28 10:33N 37°57' E 023°38'0 0.4
2015-Apr-28 09:33N 37°56' E 023°38'0 0.1
2015-Apr-28 08:33N 37°56' E 023°38'0 0.1
2015-Apr-28 07:33N 37°56' E 023°38'0 0.0
2015-Apr-28 06:33N 37°56' E 023°38'1 0.9
2015-Apr-28 05:33N 37°56' E 023°37'1 1.1
2015-Apr-28 04:33N 37°58' E 023°37'0 0.0
2015-Apr-28 03:33N 37°58' E 023°37'0 0.0
2015-Apr-28 02:33N 37°58' E 023°37'0 0.0
2015-Apr-28 01:33N 37°58' E 023°37'0 0.0
2015-Apr-28 00:33N 37°58' E 023°37'0 0.0
2015-Apr-27 23:33N 37°58' E 023°37'0 0.0
2015-Apr-27 22:33N 37°58' E 023°37'0 0.0
2015-Apr-27 21:33N 37°58' E 023°37'0 0.0
2015-Apr-27 20:33N 37°58' E 023°37'0 0.0
2015-Apr-27 19:33N 37°58' E 023°37'0 0.0
2015-Apr-27 18:33N 37°58' E 023°37'0 0.0
2015-Apr-27 17:33N 37°58' E 023°37'0 0.0
2015-Apr-27 16:33N 37°58' E 023°37'0 0.0
2015-Apr-27 15:33N 37°58' E 023°37'0 0.0
2015-Apr-27 14:33N 37°58' E 023°37'3 3.5
2015-Apr-27 13:33N 37°59' E 023°33'4 3.5
2015-Apr-27 12:33N 38°02' E 023°31'0 0.0
2015-Apr-27 11:33N 38°02' E 023°31'0 0.0
2015-Apr-27 10:33N 38°02' E 023°31'0 0.0
2015-Apr-27 09:33N 38°02' E 023°31'4 3.7
2015-Apr-27 08:33N 37°59' E 023°33'5 4.9
2015-Apr-27 07:33N 37°57' E 023°38'0 0.0
2015-Apr-27 06:33N 37°57' E 023°38'0 0.0
2015-Apr-27 05:33N 37°57' E 023°38'0 0.0
2015-Apr-27 04:33N 37°57' E 023°38'2 1.5
2015-Apr-27 03:33N 37°58' E 023°37'0 0.0
2015-Apr-27 02:33N 37°58' E 023°37'0 0.0
2015-Apr-27 01:33N 37°58' E 023°37'0 0.0
2015-Apr-27 00:33N 37°58' E 023°37'0 0.0
2015-Apr-26 23:33N 37°58' E 023°37'0 0.0
2015-Apr-26 22:33N 37°58' E 023°37'0 0.0
2015-Apr-26 21:33N 37°58' E 023°37'0 0.0
2015-Apr-26 20:33N 37°58' E 023°37'0 0.0
2015-Apr-26 19:33N 37°58' E 023°37'0 0.0
2015-Apr-26 18:33N 37°58' E 023°37'0 0.0
2015-Apr-26 17:33N 37°58' E 023°37'0 0.0
2015-Apr-26 16:33N 37°58' E 023°37'0 0.0
2015-Apr-26 15:33N 37°58' E 023°37'0 0.0
2015-Apr-26 14:33N 37°58' E 023°37'0 0.0
2015-Apr-26 13:33N 37°58' E 023°37'5 4.9
2015-Apr-26 12:33N 38°01' E 023°32'0 0.4
2015-Apr-26 11:31N 38°01' E 023°32'0 0.2
2015-Apr-26 10:33N 38°01' E 023°32'6 6.4
2015-Apr-26 09:33N 37°56' E 023°37'0 0.0
2015-Apr-26 08:33N 37°56' E 023°37'0 0.0
2015-Apr-26 07:33N 37°56' E 023°37'0 0.0
2015-Apr-26 06:33N 37°56' E 023°37'1 1.5
2015-Apr-26 05:33N 37°58' E 023°37'0 0.0
2015-Apr-26 04:33N 37°58' E 023°37'0 0.0
2015-Apr-26 03:33N 37°58' E 023°37'0 0.0
2015-Apr-26 02:33N 37°58' E 023°37'0 0.0
2015-Apr-26 01:33N 37°58' E 023°37'0 0.0
2015-Apr-26 00:33N 37°58' E 023°37'0 0.0
2015-Apr-25 23:33N 37°58' E 023°37'0 0.0
2015-Apr-25 22:33N 37°58' E 023°37'0 0.0
2015-Apr-25 21:33N 37°58' E 023°37'0 0.0
2015-Apr-25 20:33N 37°58' E 023°37'0 0.0
2015-Apr-25 19:33N 37°58' E 023°37'0 0.0
2015-Apr-25 18:33N 37°58' E 023°37'0 0.0
2015-Apr-25 17:33N 37°58' E 023°37'0 0.0
2015-Apr-25 16:33N 37°58' E 023°37'0 0.0
2015-Apr-25 15:33N 37°58' E 023°37'0 0.0
2015-Apr-25 14:33N 37°58' E 023°37'0 0.0
2015-Apr-25 13:33N 37°58' E 023°37'1 0.6
2015-Apr-25 12:33N 37°57' E 023°36'4 4.1
2015-Apr-25 11:28N 38°02' E 023°36'0 0.0
2015-Apr-25 10:33N 38°02' E 023°36'0 0.0
2015-Apr-25 09:14N 38°02' E 023°36'0 0.0
2015-Apr-25 08:09N 38°02' E 023°36'3 5.3
2015-Apr-25 07:33N 38°01' E 023°32'0 0.1
2015-Apr-25 06:33N 38°01' E 023°32'0 0.0
2015-Apr-25 05:33N 38°01' E 023°32'5 5.3
2015-Apr-25 04:33N 37°57' E 023°36'1 1.0
2015-Apr-25 03:33N 37°58' E 023°37'0 0.0
2015-Apr-25 02:33N 37°58' E 023°37'0 0.0
2015-Apr-25 01:33N 37°58' E 023°37'0 0.0
2015-Apr-25 00:33N 37°58' E 023°37'0 0.0
2015-Apr-24 23:33N 37°58' E 023°37'0 0.0
2015-Apr-24 22:33N 37°58' E 023°37'0 0.0
2015-Apr-24 21:33N 37°58' E 023°37'0 0.0
2015-Apr-24 20:33N 37°58' E 023°37'0 0.0
2015-Apr-24 19:33N 37°58' E 023°37'0 0.0
2015-Apr-24 18:33N 37°58' E 023°37'0 0.0
2015-Apr-24 17:33N 37°58' E 023°37'0 0.0
2015-Apr-24 16:33N 37°58' E 023°37'0 0.0
2015-Apr-24 15:33N 37°58' E 023°37'0 0.0
2015-Apr-24 14:33N 37°58' E 023°37'0 0.0
2015-Apr-24 13:33N 37°58' E 023°37'0 0.0
2015-Apr-24 12:33N 37°58' E 023°37'0 0.0
2015-Apr-24 11:33N 37°58' E 023°37'0 0.0
2015-Apr-24 10:33N 37°58' E 023°37'1 1.5
2015-Apr-24 09:33N 37°57' E 023°38'  
Track history (hours):
 
Tides and Currents Weather Stations Pressure Air Temp Water Temp Dewpoint Dewpoint Depression Visibility Wind Speed Wind Dir Waves Ship Positions

Mandoudi

Last reported at 2015-May-04 08:34 UTC. Time now 2015-May-04 09:02 UTC.
Position N 37°57' E 023°38'.

Length 60 m; draft 4.6 m.

Type: Ship (hazmat cat A). MMSI: 237470200.

Date/timePositionNaut miles runAvg speedWind from/ knotsBaromVisibWave heightAir tempDewpointWater temp
2015-May-04 08:34N 37°57' E 023°38'0 0.0
2015-May-04 07:33N 37°57' E 023°38'0 0.0
2015-May-04 06:33N 37°57' E 023°38'0 0.0
2015-May-04 05:33N 37°57' E 023°38'0 0.0
2015-May-04 04:33N 37°57' E 023°38'2 1.5
2015-May-04 03:33N 37°58' E 023°37'0 0.0
2015-May-04 02:33N 37°58' E 023°37'0 0.0
2015-May-04 01:33N 37°58' E 023°37'0 0.0
2015-May-04 00:33N 37°58' E 023°37'0 0.0
2015-May-03 23:33N 37°58' E 023°37'0 0.0
2015-May-03 22:33N 37°58' E 023°37'0 0.0
2015-May-03 21:33N 37°58' E 023°37'0 0.0
2015-May-03 20:33N 37°58' E 023°37'0 0.0
2015-May-03 19:33N 37°58' E 023°37'0 0.0
2015-May-03 18:33N 37°58' E 023°37'0 0.0
2015-May-03 17:33N 37°58' E 023°37'0 0.0
2015-May-03 16:33N 37°58' E 023°37'0 0.0
2015-May-03 15:33N 37°58' E 023°37'0 0.0
2015-May-03 14:33N 37°58' E 023°37'0 0.0
2015-May-03 13:34N 37°58' E 023°37'0 0.0
2015-May-03 12:33N 37°58' E 023°37'0 0.0
2015-May-03 11:33N 37°58' E 023°37'0 0.0
2015-May-03 10:33N 37°58' E 023°37'0 0.0
2015-May-03 09:33N 37°58' E 023°37'0 0.0
2015-May-03 08:33N 37°58' E 023°37'0 0.0
2015-May-03 07:33N 37°58' E 023°37'0 0.0
2015-May-03 06:33N 37°58' E 023°37'0 0.0
2015-May-03 05:33N 37°58' E 023°37'0 0.0
2015-May-03 04:33N 37°58' E 023°37'0 0.0
2015-May-03 03:33N 37°58' E 023°37'0 0.0
2015-May-03 02:33N 37°58' E 023°37'0 0.0
2015-May-03 01:33N 37°58' E 023°37'0 0.0
2015-May-03 00:32N 37°58' E 023°37'0 0.0
2015-May-02 23:33N 37°58' E 023°37'0 0.0
2015-May-02 22:33N 37°58' E 023°37'0 0.0
2015-May-02 21:33N 37°58' E 023°37'0 0.0
2015-May-02 20:33N 37°58' E 023°37'0 0.0
2015-May-02 19:33N 37°58' E 023°37'0 0.0
2015-May-02 18:33N 37°58' E 023°37'0 0.0
2015-May-02 17:33N 37°58' E 023°37'0 0.0
2015-May-02 16:33N 37°58' E 023°37'1 1.3
2015-May-02 15:33N 37°57' E 023°35'5 5.1
2015-May-02 14:33N 38°02' E 023°33'0 0.0
2015-May-02 13:32N 38°02' E 023°33'1 0.6
2015-May-02 12:33N 38°02' E 023°32'0 0.1
2015-May-02 11:33N 38°01' E 023°32'0 0.0
2015-May-02 10:32N 38°01' E 023°32'1 1.2
2015-May-02 09:30N 38°02' E 023°31'0 0.0
2015-May-02 08:33N 38°02' E 023°31'0 0.0
2015-May-02 07:32N 38°02' E 023°31'0 0.0
2015-May-02 06:16N 38°02' E 023°31'0 0.0
2015-May-02 05:33N 38°02' E 023°31'0 0.3
2015-May-02 04:32N 38°02' E 023°31'6 6.3
2015-May-02 03:33N 37°57' E 023°36'1 0.6
2015-May-02 02:33N 37°58' E 023°37'0 0.0
2015-May-02 01:33N 37°58' E 023°37'0 0.0
2015-May-02 00:33N 37°58' E 023°37'0 0.0
2015-May-01 23:33N 37°58' E 023°37'0 0.0
2015-May-01 22:33N 37°58' E 023°37'0 0.0
2015-May-01 21:33N 37°58' E 023°37'0 0.0
2015-May-01 20:33N 37°58' E 023°37'0 0.0
2015-May-01 19:33N 37°58' E 023°37'0 0.0
2015-May-01 18:33N 37°58' E 023°37'0 0.0
2015-May-01 17:33N 37°58' E 023°37'0 0.0
2015-May-01 16:33N 37°58' E 023°37'0 0.0
2015-May-01 15:33N 37°58' E 023°37'0 0.0
2015-May-01 14:33N 37°58' E 023°37'0 0.0
2015-May-01 13:33N 37°58' E 023°37'0 0.0
2015-May-01 12:33N 37°58' E 023°37'0 0.0
2015-May-01 11:33N 37°58' E 023°37'0 0.0
2015-May-01 10:33N 37°58' E 023°37'0 0.0
2015-May-01 09:33N 37°58' E 023°37'0 0.0
2015-May-01 08:33N 37°58' E 023°37'0 0.0
2015-May-01 07:33N 37°58' E 023°37'0 0.0
2015-May-01 06:33N 37°58' E 023°37'0 0.0
2015-May-01 05:33N 37°58' E 023°37'0 0.0
2015-May-01 04:33N 37°58' E 023°37'0 0.0
2015-May-01 03:33N 37°58' E 023°37'0 0.0
2015-May-01 02:33N 37°58' E 023°37'0 0.0
2015-May-01 01:33N 37°58' E 023°37'0 0.0
2015-May-01 00:33N 37°58' E 023°37'0 0.0
2015-Apr-30 23:33N 37°58' E 023°37'0 0.0
2015-Apr-30 22:33N 37°58' E 023°37'0 0.0
2015-Apr-30 21:33N 37°58' E 023°37'2 1.5
2015-Apr-30 20:33N 37°57' E 023°38'0 0.0
2015-Apr-30 19:33N 37°57' E 023°38'1 0.8
2015-Apr-30 18:33N 37°56' E 023°37'1 1.3
2015-Apr-30 17:33N 37°58' E 023°37'0 0.0
2015-Apr-30 16:33N 37°58' E 023°37'1 1.4
2015-Apr-30 15:33N 37°57' E 023°38'0 0.0
2015-Apr-30 14:33N 37°57' E 023°38'0 0.0
2015-Apr-30 13:33N 37°57' E 023°38'0 0.0
2015-Apr-30 12:33N 37°57' E 023°38'0 0.0
2015-Apr-30 11:33N 37°57' E 023°38'0 0.0
2015-Apr-30 10:33N 37°57' E 023°38'5 5.2
2015-Apr-30 09:33N 37°60' E 023°33'2 1.8
2015-Apr-30 08:33N 38°01' E 023°32'0 0.3
2015-Apr-30 07:30N 38°02' E 023°31'0 0.0
2015-Apr-30 06:33N 38°02' E 023°31'4 0.2
2015-Apr-29 12:06N 37°58' E 023°33'4 8.0
2015-Apr-29 11:33N 37°57' E 023°38'0 0.0
2015-Apr-29 10:33N 37°57' E 023°38'0 0.0
2015-Apr-29 09:33N 37°57' E 023°38'0 0.0
2015-Apr-29 08:33N 37°57' E 023°38'0 0.1
2015-Apr-29 07:33N 37°57' E 023°38'0 0.1
2015-Apr-29 06:33N 37°56' E 023°38'0 0.0
2015-Apr-29 05:33N 37°56' E 023°38'0 0.0
2015-Apr-29 04:33N 37°56' E 023°38'1 1.4
2015-Apr-29 03:33N 37°58' E 023°37'0 0.0
2015-Apr-29 02:33N 37°58' E 023°37'0 0.0
2015-Apr-29 01:34N 37°58' E 023°37'0 0.0
2015-Apr-29 00:33N 37°58' E 023°37'0 0.0
2015-Apr-28 23:33N 37°58' E 023°37'0 0.0
2015-Apr-28 22:33N 37°58' E 023°37'0 0.0
2015-Apr-28 21:33N 37°58' E 023°37'0 0.0
2015-Apr-28 20:33N 37°58' E 023°37'0 0.0
2015-Apr-28 19:33N 37°58' E 023°37'0 0.0
2015-Apr-28 18:33N 37°58' E 023°37'4 3.8
2015-Apr-28 17:33N 37°60' E 023°33'3 1.9
2015-Apr-28 16:04N 38°02' E 023°31'0 0.0
2015-Apr-28 15:25N 38°02' E 023°31'0 0.0
2015-Apr-28 14:33N 38°02' E 023°31'2 1.6
2015-Apr-28 13:33N 38°01' E 023°32'6 6.5
2015-Apr-28 12:33N 37°57' E 023°38'0 0.0
2015-Apr-28 11:33N 37°57' E 023°38'0 0.0
2015-Apr-28 10:33N 37°57' E 023°38'0 0.4
2015-Apr-28 09:33N 37°56' E 023°38'0 0.1
2015-Apr-28 08:33N 37°56' E 023°38'0 0.1
2015-Apr-28 07:33N 37°56' E 023°38'0 0.0
2015-Apr-28 06:33N 37°56' E 023°38'1 0.9
2015-Apr-28 05:33N 37°56' E 023°37'1 1.1
2015-Apr-28 04:33N 37°58' E 023°37'0 0.0
2015-Apr-28 03:33N 37°58' E 023°37'0 0.0
2015-Apr-28 02:33N 37°58' E 023°37'0 0.0
2015-Apr-28 01:33N 37°58' E 023°37'0 0.0
2015-Apr-28 00:33N 37°58' E 023°37'0 0.0
2015-Apr-27 23:33N 37°58' E 023°37'0 0.0
2015-Apr-27 22:33N 37°58' E 023°37'0 0.0
2015-Apr-27 21:33N 37°58' E 023°37'0 0.0
2015-Apr-27 20:33N 37°58' E 023°37'0 0.0
2015-Apr-27 19:33N 37°58' E 023°37'0 0.0
2015-Apr-27 18:33N 37°58' E 023°37'0 0.0
2015-Apr-27 17:33N 37°58' E 023°37'0 0.0
2015-Apr-27 16:33N 37°58' E 023°37'0 0.0
2015-Apr-27 15:33N 37°58' E 023°37'0 0.0
2015-Apr-27 14:33N 37°58' E 023°37'3 3.5
2015-Apr-27 13:33N 37°59' E 023°33'4 3.5
2015-Apr-27 12:33N 38°02' E 023°31'0 0.0
2015-Apr-27 11:33N 38°02' E 023°31'0 0.0
2015-Apr-27 10:33N 38°02' E 023°31'0 0.0
2015-Apr-27 09:33N 38°02' E 023°31'4 3.7
2015-Apr-27 08:33N 37°59' E 023°33'5 4.9
2015-Apr-27 07:33N 37°57' E 023°38'0 0.0
2015-Apr-27 06:33N 37°57' E 023°38'0 0.0
2015-Apr-27 05:33N 37°57' E 023°38'0 0.0
2015-Apr-27 04:33N 37°57' E 023°38'2 1.5
2015-Apr-27 03:33N 37°58' E 023°37'0 0.0
2015-Apr-27 02:33N 37°58' E 023°37'0 0.0
2015-Apr-27 01:33N 37°58' E 023°37'0 0.0
2015-Apr-27 00:33N 37°58' E 023°37'0 0.0
2015-Apr-26 23:33N 37°58' E 023°37'0 0.0
2015-Apr-26 22:33N 37°58' E 023°37'0 0.0
2015-Apr-26 21:33N 37°58' E 023°37'0 0.0
2015-Apr-26 20:33N 37°58' E 023°37'0 0.0
2015-Apr-26 19:33N 37°58' E 023°37'0 0.0
2015-Apr-26 18:33N 37°58' E 023°37'0 0.0
2015-Apr-26 17:33N 37°58' E 023°37'0 0.0
2015-Apr-26 16:33N 37°58' E 023°37'0 0.0
2015-Apr-26 15:33N 37°58' E 023°37'0 0.0
2015-Apr-26 14:33N 37°58' E 023°37'0 0.0
2015-Apr-26 13:33N 37°58' E 023°37'5 4.9
2015-Apr-26 12:33N 38°01' E 023°32'0 0.4
2015-Apr-26 11:31N 38°01' E 023°32'0 0.2
2015-Apr-26 10:33N 38°01' E 023°32'6 6.4
2015-Apr-26 09:33N 37°56' E 023°37'0 0.0
2015-Apr-26 08:33N 37°56' E 023°37'0 0.0
2015-Apr-26 07:33N 37°56' E 023°37'0 0.0
2015-Apr-26 06:33N 37°56' E 023°37'1 1.5
2015-Apr-26 05:33N 37°58' E 023°37'0 0.0
2015-Apr-26 04:33N 37°58' E 023°37'0 0.0
2015-Apr-26 03:33N 37°58' E 023°37'0 0.0
2015-Apr-26 02:33N 37°58' E 023°37'0 0.0
2015-Apr-26 01:33N 37°58' E 023°37'0 0.0
2015-Apr-26 00:33N 37°58' E 023°37'0 0.0
2015-Apr-25 23:33N 37°58' E 023°37'0 0.0
2015-Apr-25 22:33N 37°58' E 023°37'0 0.0
2015-Apr-25 21:33N 37°58' E 023°37'0 0.0
2015-Apr-25 20:33N 37°58' E 023°37'0 0.0
2015-Apr-25 19:33N 37°58' E 023°37'0 0.0
2015-Apr-25 18:33N 37°58' E 023°37'0 0.0
2015-Apr-25 17:33N 37°58' E 023°37'0 0.0
2015-Apr-25 16:33N 37°58' E 023°37'0 0.0
2015-Apr-25 15:33N 37°58' E 023°37'0 0.0
2015-Apr-25 14:33N 37°58' E 023°37'0 0.0
2015-Apr-25 13:33N 37°58' E 023°37'1 0.6
2015-Apr-25 12:33N 37°57' E 023°36'4 4.1
2015-Apr-25 11:28N 38°02' E 023°36'0 0.0
2015-Apr-25 10:33N 38°02' E 023°36'0 0.0
2015-Apr-25 09:14N 38°02' E 023°36'0 0.0
2015-Apr-25 08:09N 38°02' E 023°36'3 5.3
2015-Apr-25 07:33N 38°01' E 023°32'0 0.1
2015-Apr-25 06:33N 38°01' E 023°32'0 0.0
2015-Apr-25 05:33N 38°01' E 023°32'5 5.3
2015-Apr-25 04:33N 37°57' E 023°36'1 1.0
2015-Apr-25 03:33N 37°58' E 023°37'0 0.0
2015-Apr-25 02:33N 37°58' E 023°37'0 0.0
2015-Apr-25 01:33N 37°58' E 023°37'0 0.0
2015-Apr-25 00:33N 37°58' E 023°37'0 0.0
2015-Apr-24 23:33N 37°58' E 023°37'0 0.0
2015-Apr-24 22:33N 37°58' E 023°37'0 0.0
2015-Apr-24 21:33N 37°58' E 023°37'0 0.0
2015-Apr-24 20:33N 37°58' E 023°37'0 0.0
2015-Apr-24 19:33N 37°58' E 023°37'0 0.0
2015-Apr-24 18:33N 37°58' E 023°37'0 0.0
2015-Apr-24 17:33N 37°58' E 023°37'0 0.0
2015-Apr-24 16:33N 37°58' E 023°37'0 0.0
2015-Apr-24 15:33N 37°58' E 023°37'0 0.0
2015-Apr-24 14:33N 37°58' E 023°37'0 0.0
2015-Apr-24 13:33N 37°58' E 023°37'0 0.0
2015-Apr-24 12:33N 37°58' E 023°37'0 0.0
2015-Apr-24 11:33N 37°58' E 023°37'0 0.0
2015-Apr-24 10:33N 37°58' E 023°37'1 1.5
2015-Apr-24 09:33N 37°57' E 023°38'  

Dump ship's entire track history